createdAt,value
2023-05-25T00:01:05.704Z,6.27
2023-05-25T00:03:33.080Z,6.20
2023-05-25T00:06:03.955Z,6.73
2023-05-25T00:08:31.179Z,4.33
2023-05-25T00:10:58.402Z,6.20
2023-05-25T00:13:25.765Z,7.23
2023-05-25T00:15:53.011Z,4.40
2023-05-25T00:18:20.052Z,5.70
2023-05-25T00:20:47.957Z,6.10
2023-05-25T00:23:15.487Z,6.90
2023-05-25T00:25:42.974Z,6.87
2023-05-25T00:28:11.849Z,6.20
2023-05-25T00:30:39.080Z,8.53
2023-05-25T00:33:06.777Z,5.13
2023-05-25T00:35:34.837Z,5.67
2023-05-25T00:38:02.089Z,4.47
2023-05-25T00:40:29.701Z,7.03
2023-05-25T00:42:57.718Z,7.13
2023-05-25T00:45:24.995Z,7.43
2023-05-25T00:47:52.524Z,7.23
2023-05-25T00:50:30.440Z,5.60
2023-05-25T00:52:57.647Z,4.50
2023-05-25T00:55:30.259Z,4.57
2023-05-25T00:58:00.519Z,8.23
2023-05-25T01:00:29.029Z,6.40
2023-05-25T01:02:56.966Z,6.10
2023-05-25T01:05:29.097Z,5.10
2023-05-25T01:08:02.485Z,4.43
2023-05-25T01:10:32.857Z,4.90
2023-05-25T01:13:02.381Z,4.67
2023-05-25T01:15:31.045Z,4.60
2023-05-25T01:17:59.503Z,4.97
2023-05-25T01:20:27.629Z,7.63
2023-05-25T01:22:59.998Z,6.23
2023-05-25T01:25:45.939Z,5.03
2023-05-25T01:28:25.983Z,4.93
2023-05-25T01:30:56.716Z,7.83
2023-05-25T01:33:24.525Z,6.93
2023-05-25T01:35:52.525Z,7.40
2023-05-25T01:38:19.858Z,8.03
2023-05-25T01:40:46.909Z,6.80
2023-05-25T01:43:14.162Z,6.37
2023-05-25T01:45:41.451Z,6.67
2023-05-25T01:48:15.891Z,6.47
2023-05-25T01:50:43.282Z,5.30
2023-05-25T01:53:15.031Z,7.17
2023-05-25T01:55:55.127Z,5.10
2023-05-25T01:58:24.510Z,4.60
2023-05-25T02:00:52.698Z,6.50
2023-05-25T02:03:20.541Z,6.87
2023-05-25T02:05:47.692Z,6.27
2023-05-25T02:08:14.787Z,5.30
2023-05-25T02:10:42.077Z,7.87
2023-05-25T02:13:09.118Z,5.87
2023-05-25T02:15:36.429Z,5.10
2023-05-25T02:18:05.885Z,6.83
2023-05-25T02:20:33.261Z,6.30
2023-05-25T02:23:00.798Z,5.83
2023-05-25T02:25:27.829Z,5.63
2023-05-25T02:27:54.904Z,5.20
2023-05-25T02:30:21.944Z,5.73
2023-05-25T02:32:49.566Z,5.17
2023-05-25T02:35:16.689Z,5.20
2023-05-25T02:37:43.688Z,6.13
2023-05-25T02:40:11.896Z,5.57
2023-05-25T02:42:38.964Z,11.30
2023-05-25T02:45:10.608Z,6.97
2023-05-25T02:47:37.988Z,10.60
2023-05-25T02:50:06.046Z,7.27
2023-05-25T02:52:33.201Z,10.33
2023-05-25T02:55:01.090Z,8.90
2023-05-25T02:57:29.670Z,8.77
2023-05-25T02:59:56.972Z,8.97
2023-05-25T03:02:25.645Z,5.87
2023-05-25T03:04:55.857Z,6.20
2023-05-25T03:07:23.198Z,9.07
2023-05-25T03:09:50.547Z,7.67
2023-05-25T03:12:17.848Z,6.93
2023-05-25T03:14:44.875Z,6.47
2023-05-25T03:17:11.893Z,7.13
2023-05-25T03:19:38.912Z,6.80
2023-05-25T03:22:06.236Z,6.07
2023-05-25T03:26:26.130Z,9.30
2023-05-25T03:28:53.185Z,7.07
2023-05-25T03:31:20.483Z,8.73
2023-05-25T03:33:47.471Z,8.93
2023-05-25T03:36:17.580Z,7.10
2023-05-25T03:38:45.094Z,6.33
2023-05-25T03:41:12.116Z,8.87
2023-05-25T03:43:39.150Z,7.47
2023-05-25T03:46:06.233Z,7.07
2023-05-25T03:48:33.297Z,6.50
2023-05-25T03:51:00.530Z,6.93
2023-05-25T03:53:27.765Z,8.33
2023-05-25T03:55:55.123Z,7.43
2023-05-25T03:58:22.350Z,9.00
2023-05-25T04:00:49.897Z,8.50
2023-05-25T04:03:17.293Z,10.30
2023-05-25T04:05:46.025Z,8.03
2023-05-25T04:08:19.934Z,7.30
2023-05-25T04:10:47.039Z,8.87
2023-05-25T04:13:14.221Z,8.17
2023-05-25T04:15:41.529Z,10.57
2023-05-25T04:18:08.942Z,11.70
2023-05-25T04:20:36.411Z,12.30
2023-05-25T04:23:03.700Z,16.57
2023-05-25T04:25:32.224Z,14.80
2023-05-25T04:27:59.341Z,16.47
2023-05-25T04:30:26.378Z,19.60
2023-05-25T04:32:55.113Z,21.93
2023-05-25T04:35:22.169Z,18.07
2023-05-25T04:37:49.218Z,16.27
2023-05-25T04:40:16.221Z,17.87
2023-05-25T04:42:43.278Z,18.10
2023-05-25T04:45:10.662Z,20.13
2023-05-25T04:47:41.399Z,19.93
2023-05-25T04:50:10.496Z,16.30
2023-05-25T04:52:37.548Z,19.97
2023-05-25T04:55:04.938Z,18.73
2023-05-25T04:57:32.557Z,17.37
2023-05-25T04:59:59.797Z,16.73
2023-05-25T05:02:26.877Z,18.20
2023-05-25T05:04:54.553Z,19.50
2023-05-25T05:07:22.131Z,21.43
2023-05-25T05:09:49.583Z,17.07
2023-05-25T05:12:16.626Z,20.07
2023-05-25T05:14:43.783Z,16.97
2023-05-25T05:17:10.829Z,18.77
2023-05-25T05:19:37.840Z,19.20
2023-05-25T05:22:05.437Z,17.23
2023-05-25T05:24:32.641Z,17.80
2023-05-25T05:26:59.744Z,17.77
2023-05-25T05:29:28.722Z,19.00
2023-05-25T05:31:56.503Z,17.93
2023-05-25T05:34:25.664Z,18.27
2023-05-25T05:36:57.528Z,13.63
2023-05-25T05:39:27.304Z,18.33
2023-05-25T05:41:55.687Z,18.77
2023-05-25T05:44:25.989Z,17.40
2023-05-25T05:47:02.170Z,17.37
2023-05-25T05:49:30.825Z,14.03
2023-05-25T05:51:58.621Z,16.13
2023-05-25T05:54:28.226Z,15.07
2023-05-25T05:56:55.386Z,17.17
2023-05-25T05:59:24.406Z,16.80
2023-05-25T06:01:51.548Z,13.97
2023-05-25T06:04:19.424Z,18.47
2023-05-25T06:06:46.747Z,16.63
2023-05-25T06:09:14.004Z,17.87
2023-05-25T06:11:41.314Z,15.67
2023-05-25T06:14:08.611Z,11.50
2023-05-25T06:16:36.578Z,15.30
2023-05-25T06:19:04.071Z,13.30
2023-05-25T06:21:31.118Z,13.13
2023-05-25T06:23:58.147Z,14.30
2023-05-25T06:26:25.612Z,12.97
2023-05-25T06:28:52.718Z,13.63
2023-05-25T06:31:19.848Z,12.23
2023-05-25T06:33:49.170Z,14.20
2023-05-25T06:36:17.561Z,12.50
2023-05-25T06:38:44.883Z,13.47
2023-05-25T06:41:15.146Z,12.57
2023-05-25T06:43:42.591Z,12.83
2023-05-25T06:46:10.780Z,11.57
2023-05-25T06:48:39.232Z,12.87
2023-05-25T06:51:06.358Z,13.37
2023-05-25T06:53:33.508Z,12.50
2023-05-25T06:56:00.881Z,13.20
2023-05-25T06:58:27.883Z,11.27
2023-05-25T07:00:54.909Z,12.30
2023-05-25T07:03:22.199Z,12.70
2023-05-25T07:05:49.536Z,12.33
2023-05-25T07:08:17.114Z,12.40
2023-05-25T07:10:44.184Z,12.70
2023-05-25T07:13:11.700Z,11.97
2023-05-25T07:15:38.750Z,11.73
2023-05-25T07:18:05.955Z,11.67
2023-05-25T07:20:34.360Z,13.43
2023-05-25T07:23:01.670Z,12.07
2023-05-25T07:25:28.698Z,11.97
2023-05-25T07:27:56.019Z,11.70
2023-05-25T07:30:23.072Z,12.53
2023-05-25T07:32:50.171Z,11.03
2023-05-25T07:35:17.260Z,11.50
2023-05-25T07:37:44.402Z,13.10
2023-05-25T07:40:11.847Z,12.10
2023-05-25T07:42:38.961Z,10.80
2023-05-25T07:45:06.870Z,9.27
2023-05-25T07:47:34.560Z,10.37
2023-05-25T07:50:01.767Z,10.40
2023-05-25T07:52:29.094Z,9.30
2023-05-25T07:54:56.393Z,10.80
2023-05-25T07:57:23.723Z,9.02
2023-05-25T07:59:51.020Z,11.07
2023-05-25T08:02:18.639Z,9.98
2023-05-25T08:04:45.990Z,9.38
2023-05-25T08:07:13.172Z,10.52
2023-05-25T08:09:40.418Z,9.70
2023-05-25T08:12:30.696Z,9.82
2023-05-25T08:14:55.041Z,11.75
2023-05-25T08:17:22.735Z,11.75
2023-05-25T08:19:50.423Z,9.05
2023-05-25T08:22:17.535Z,8.50
2023-05-25T08:24:44.666Z,10.65
2023-05-25T08:27:11.859Z,8.30
2023-05-25T08:29:38.924Z,7.63
2023-05-25T08:32:06.244Z,9.07
2023-05-25T08:34:33.618Z,7.68
2023-05-25T08:37:00.942Z,8.10
2023-05-25T08:39:28.231Z,8.85
2023-05-25T08:41:55.521Z,7.50
2023-05-25T08:44:22.677Z,7.28
2023-05-25T08:46:50.355Z,8.13
2023-05-25T08:49:17.780Z,9.32
2023-05-25T08:51:53.595Z,16.77
2023-05-25T08:54:26.586Z,18.80
2023-05-25T08:57:02.829Z,11.25
2023-05-25T09:00:00.636Z,11.32
2023-05-25T09:02:38.253Z,16.10
2023-05-25T09:05:05.723Z,7.43
2023-05-25T09:07:33.569Z,11.38
2023-05-25T09:10:01.689Z,6.57
2023-05-25T09:12:32.318Z,7.40
2023-05-25T09:14:59.810Z,7.65
2023-05-25T09:17:27.296Z,9.77
2023-05-25T09:19:55.015Z,9.07
2023-05-25T09:22:22.533Z,12.68
2023-05-25T09:24:49.840Z,12.80
2023-05-25T09:27:19.342Z,8.77
2023-05-25T09:29:51.191Z,19.20
2023-05-25T09:32:20.197Z,8.45
2023-05-25T09:34:47.703Z,18.58
2023-05-25T09:37:17.438Z,12.93
2023-05-25T09:39:45.232Z,11.73
2023-05-25T09:42:12.657Z,11.02
2023-05-25T09:44:40.638Z,14.35
2023-05-25T09:47:08.065Z,10.95
2023-05-25T09:49:35.773Z,12.15
2023-05-25T09:52:02.959Z,10.65
2023-05-25T09:54:30.318Z,13.45
2023-05-25T09:56:57.661Z,10.98
2023-05-25T09:59:25.020Z,8.13
2023-05-25T10:01:55.628Z,9.80
2023-05-25T10:04:23.016Z,8.23
2023-05-25T10:06:51.922Z,15.25
2023-05-25T10:09:20.555Z,9.27
2023-05-25T10:11:51.617Z,9.82
2023-05-25T10:14:28.022Z,9.27
2023-05-25T10:16:59.301Z,12.55
2023-05-25T10:19:43.115Z,8.57
2023-05-25T10:22:22.234Z,7.28
2023-05-25T10:25:14.472Z,7.40
2023-05-25T10:27:45.530Z,8.02
2023-05-25T10:30:14.548Z,7.28
2023-05-25T10:32:44.334Z,7.93
2023-05-25T10:35:12.212Z,8.40
2023-05-25T10:37:40.246Z,8.40
2023-05-25T10:40:11.079Z,8.23
2023-05-25T10:42:38.912Z,14.77
2023-05-25T10:45:08.955Z,7.32
2023-05-25T10:47:39.211Z,23.67
2023-05-25T10:50:07.198Z,8.93
2023-05-25T10:52:34.765Z,10.88
2023-05-25T10:55:04.201Z,12.65
2023-05-25T10:57:31.536Z,11.15
2023-05-25T11:00:06.570Z,9.50
2023-05-25T11:02:58.097Z,10.18
2023-05-25T11:05:29.104Z,10.65
2023-05-25T11:07:59.779Z,18.35
2023-05-25T11:10:49.188Z,27.88
2023-05-25T11:13:31.538Z,8.05
2023-05-25T11:16:29.461Z,10.18
2023-05-25T11:18:58.618Z,11.32
2023-05-25T11:21:30.258Z,8.38
2023-05-25T11:24:02.988Z,15.45
2023-05-25T11:26:32.404Z,8.90
2023-05-25T11:29:01.113Z,7.18
2023-05-25T11:31:32.376Z,9.55
2023-05-25T11:34:02.495Z,13.95
2023-05-25T11:36:31.649Z,8.38
2023-05-25T11:39:08.555Z,6.78
2023-05-25T11:41:48.163Z,8.15
2023-05-25T11:44:15.318Z,10.05
2023-05-25T11:46:43.690Z,27.38
2023-05-25T11:49:10.998Z,23.23
2023-05-25T11:51:38.723Z,16.15
2023-05-25T11:54:06.138Z,7.82
2023-05-25T11:56:36.051Z,9.15
2023-05-25T11:59:07.901Z,11.63
2023-05-25T12:01:35.251Z,15.85
2023-05-25T12:04:09.533Z,16.92
2023-05-25T12:06:36.993Z,8.18
2023-05-25T12:09:08.278Z,5.95
2023-05-25T12:11:38.343Z,19.92
2023-05-25T12:14:07.598Z,17.30
2023-05-25T12:16:39.222Z,11.48
2023-05-25T12:19:11.797Z,7.95
2023-05-25T12:21:40.999Z,6.25
2023-05-25T12:24:09.579Z,6.72
2023-05-25T12:26:50.525Z,5.22
2023-05-25T12:29:17.870Z,9.00
2023-05-25T12:31:45.071Z,7.38
2023-05-25T12:34:17.006Z,6.20
2023-05-25T12:36:56.428Z,8.07
2023-05-25T12:39:29.424Z,6.53
2023-05-25T12:42:13.123Z,6.05
2023-05-25T12:44:40.231Z,6.90
2023-05-25T12:47:20.214Z,10.38
2023-05-25T12:49:52.203Z,8.10
2023-05-25T12:52:32.875Z,8.02
2023-05-25T12:55:18.531Z,10.65
2023-05-25T12:57:47.394Z,13.02
2023-05-25T13:00:14.950Z,8.60
2023-05-25T13:02:47.760Z,8.32
2023-05-25T13:05:30.755Z,13.55
2023-05-25T13:07:58.376Z,6.82
2023-05-25T13:10:26.598Z,17.35
2023-05-25T13:12:55.575Z,8.70
2023-05-25T13:15:23.105Z,11.27
2023-05-25T13:17:51.559Z,6.63
2023-05-25T13:20:22.561Z,11.95
2023-05-25T13:22:53.174Z,14.35
2023-05-25T13:25:22.743Z,8.02
2023-05-25T13:27:51.505Z,10.52
2023-05-25T13:30:20.936Z,6.53
2023-05-25T13:32:50.319Z,9.70
2023-05-25T13:35:23.521Z,5.25
2023-05-25T13:37:51.245Z,8.65
2023-05-25T13:40:19.942Z,7.40
2023-05-25T13:42:47.325Z,10.85
2023-05-25T13:45:14.430Z,13.38
2023-05-25T13:47:44.086Z,9.95
2023-05-25T13:50:12.646Z,13.27
2023-05-25T13:52:40.016Z,10.43
2023-05-25T13:55:07.744Z,7.20
2023-05-25T13:57:35.127Z,7.63
2023-05-25T14:00:02.456Z,6.72
2023-05-25T14:02:32.124Z,7.28
2023-05-25T14:04:59.350Z,12.05
2023-05-25T14:07:26.730Z,7.97
2023-05-25T14:09:53.805Z,7.57
2023-05-25T14:12:21.309Z,9.57
2023-05-25T14:14:48.455Z,10.05
2023-05-25T14:17:15.566Z,6.65
2023-05-25T14:19:42.664Z,6.03
2023-05-25T14:22:14.163Z,7.60
2023-05-25T14:24:42.233Z,7.40
2023-05-25T14:27:11.369Z,10.40
2023-05-25T14:29:38.428Z,4.60
2023-05-25T14:32:05.595Z,12.68
2023-05-25T14:34:32.677Z,4.68
2023-05-25T14:36:59.784Z,5.75
2023-05-25T14:39:28.377Z,5.50
2023-05-25T14:41:56.161Z,4.82
2023-05-25T14:44:23.192Z,6.03
2023-05-25T14:46:50.932Z,9.25
2023-05-25T14:49:18.060Z,5.57
2023-05-25T14:51:45.126Z,6.45
2023-05-25T14:54:13.734Z,16.25
2023-05-25T14:56:40.899Z,4.13
2023-05-25T14:59:08.140Z,4.63
2023-05-25T15:01:35.784Z,5.97
2023-05-25T15:04:03.638Z,5.45
2023-05-25T15:06:32.329Z,4.85
2023-05-25T15:08:59.604Z,5.00
2023-05-25T15:11:29.494Z,4.53
2023-05-25T15:13:58.907Z,3.63
2023-05-25T15:16:26.279Z,3.83
2023-05-25T15:18:53.751Z,12.13
2023-05-25T15:21:21.190Z,3.97
2023-05-25T15:23:48.272Z,4.03
2023-05-25T15:26:15.625Z,9.48
2023-05-25T15:28:42.706Z,4.90
2023-05-25T15:31:09.782Z,5.28
2023-05-25T15:33:48.516Z,6.63
2023-05-25T15:36:21.215Z,4.55
2023-05-25T15:38:49.391Z,4.05
2023-05-25T15:41:17.723Z,5.05
2023-05-25T15:44:00.991Z,3.97
2023-05-25T15:46:28.316Z,4.43
2023-05-25T15:48:56.091Z,4.35
2023-05-25T15:51:23.187Z,4.68
2023-05-25T15:53:50.249Z,4.18
2023-05-25T15:56:17.389Z,4.68
2023-05-25T15:58:48.819Z,4.10
2023-05-25T16:01:16.687Z,4.00
2023-05-25T16:03:44.876Z,3.92
2023-05-25T16:06:12.129Z,5.07
2023-05-25T16:08:39.399Z,3.95
2023-05-25T16:11:06.511Z,4.72
2023-05-25T16:13:33.849Z,9.52
2023-05-25T16:16:00.980Z,14.68
2023-05-25T16:18:28.385Z,3.97
2023-05-25T16:21:01.392Z,20.63
2023-05-25T16:23:28.541Z,5.93
2023-05-25T16:25:55.941Z,5.00
2023-05-25T16:28:23.310Z,5.13
2023-05-25T16:30:50.396Z,5.15
2023-05-25T16:33:17.547Z,6.30
2023-05-25T16:35:44.821Z,5.30
2023-05-25T16:38:12.084Z,4.28
2023-05-25T16:40:40.035Z,4.35
2023-05-25T16:43:07.348Z,4.20
2023-05-25T16:45:34.543Z,4.32
2023-05-25T16:48:01.718Z,7.63
2023-05-25T16:50:29.049Z,5.28
2023-05-25T16:52:56.954Z,5.50
2023-05-25T16:55:24.117Z,4.95
2023-05-25T16:57:51.409Z,5.90
2023-05-25T17:00:18.736Z,5.95
2023-05-25T17:02:45.861Z,4.05
2023-05-25T17:05:13.096Z,6.05
2023-05-25T17:07:41.027Z,6.55
2023-05-25T17:10:09.285Z,7.25
2023-05-25T17:12:36.475Z,4.35
2023-05-25T17:15:04.161Z,5.32
2023-05-25T17:17:31.502Z,4.28
2023-05-25T17:20:02.146Z,7.75
2023-05-25T17:22:29.251Z,4.45
2023-05-25T17:24:56.263Z,4.13
2023-05-25T17:27:25.486Z,4.97
2023-05-25T17:29:52.765Z,5.35
2023-05-25T17:32:20.063Z,4.05
2023-05-25T17:34:47.112Z,4.07
2023-05-25T17:37:19.006Z,4.23
2023-05-25T17:39:46.623Z,4.50
2023-05-25T17:42:13.641Z,4.70
2023-05-25T17:44:42.671Z,4.63
2023-05-25T17:47:11.192Z,4.77
2023-05-25T17:49:38.559Z,4.97
2023-05-25T17:52:07.742Z,4.90
2023-05-25T17:54:35.567Z,3.83
2023-05-25T17:57:03.337Z,3.47
2023-05-25T17:59:30.689Z,6.07
2023-05-25T18:01:58.092Z,6.37
2023-05-25T18:04:25.315Z,4.30
2023-05-25T18:06:52.614Z,5.33
2023-05-25T18:09:21.063Z,3.87
2023-05-25T18:11:48.096Z,4.27
2023-05-25T18:14:15.437Z,4.27
2023-05-25T18:16:44.628Z,4.03
2023-05-25T18:19:11.885Z,4.83
2023-05-25T18:21:40.164Z,4.37
2023-05-25T18:24:08.490Z,3.67
2023-05-25T18:26:42.340Z,4.03
2023-05-25T18:29:09.776Z,4.07
2023-05-25T18:31:37.010Z,4.10
2023-05-25T18:34:07.128Z,4.30
2023-05-25T18:36:34.274Z,3.70
2023-05-25T18:39:01.278Z,4.20
2023-05-25T18:41:28.433Z,3.87
2023-05-25T18:43:55.464Z,3.93
2023-05-25T18:46:23.880Z,4.73
2023-05-25T18:48:51.212Z,4.60
2023-05-25T18:51:22.397Z,5.30
2023-05-25T18:53:49.416Z,4.67
2023-05-25T18:56:16.572Z,4.80
2023-05-25T18:58:43.616Z,5.20
2023-05-25T19:01:11.089Z,4.43
2023-05-25T19:03:38.344Z,5.33
2023-05-25T19:06:05.527Z,5.30
2023-05-25T19:08:32.714Z,4.07
2023-05-25T19:11:00.000Z,5.33
2023-05-25T19:13:27.211Z,6.43
2023-05-25T19:15:54.387Z,6.00
2023-05-25T19:18:23.189Z,5.10
2023-05-25T19:20:50.304Z,5.73
2023-05-25T19:23:19.521Z,6.57
2023-05-25T19:25:46.855Z,6.57
2023-05-25T19:28:14.313Z,5.83
2023-05-25T19:30:41.673Z,5.40
2023-05-25T19:33:09.239Z,6.63
2023-05-25T19:35:36.367Z,4.83
2023-05-25T19:38:03.647Z,7.43
2023-05-25T19:40:31.997Z,4.30
2023-05-25T19:42:59.091Z,10.90
2023-05-25T19:45:26.293Z,4.80
2023-05-25T19:47:53.861Z,4.97
2023-05-25T19:50:21.429Z,4.50
2023-05-25T19:52:48.834Z,8.20
2023-05-25T19:55:16.005Z,4.87
2023-05-25T19:57:43.287Z,4.63
2023-05-25T20:00:17.563Z,5.73
2023-05-25T20:02:53.163Z,5.23
2023-05-25T20:05:20.404Z,7.30
2023-05-25T20:07:47.639Z,6.23
2023-05-25T20:10:14.786Z,6.47
2023-05-25T20:12:42.073Z,7.67
2023-05-25T20:15:09.376Z,7.23
2023-05-25T20:17:36.754Z,6.80
2023-05-25T20:20:05.172Z,7.07
2023-05-25T20:22:33.208Z,6.50
2023-05-25T20:25:01.036Z,7.23
2023-05-25T20:27:28.498Z,9.77
2023-05-25T20:29:55.701Z,9.63
2023-05-25T20:32:22.769Z,9.23
2023-05-25T20:34:50.250Z,9.50
2023-05-25T20:37:17.419Z,10.47
2023-05-25T20:39:44.978Z,9.10
2023-05-25T20:42:14.034Z,12.80
2023-05-25T20:44:41.261Z,10.00
2023-05-25T20:47:09.742Z,7.30
2023-05-25T20:49:36.833Z,7.67
2023-05-25T20:52:03.961Z,13.10
2023-05-25T20:54:31.457Z,13.43
2023-05-25T20:56:58.526Z,11.23
2023-05-25T20:59:25.731Z,16.33
2023-05-25T21:01:52.894Z,12.77
2023-05-25T21:04:20.278Z,9.70
2023-05-25T21:06:48.457Z,11.37
2023-05-25T21:09:15.780Z,13.00
2023-05-25T21:11:42.776Z,10.87
2023-05-25T21:14:09.867Z,10.97
2023-05-25T21:16:37.584Z,7.23
2023-05-25T21:19:04.735Z,9.83
2023-05-25T21:21:34.603Z,8.57
2023-05-25T21:24:02.780Z,10.13
2023-05-25T21:26:31.023Z,9.60
2023-05-25T21:28:59.416Z,9.70
2023-05-25T21:31:26.609Z,10.57
2023-05-25T21:33:55.347Z,12.47
2023-05-25T21:36:22.399Z,6.63
2023-05-25T21:38:50.750Z,8.00
2023-05-25T21:41:17.807Z,9.87
2023-05-25T21:43:45.088Z,8.67
2023-05-25T21:46:12.127Z,8.87
2023-05-25T21:48:39.407Z,11.77
2023-05-25T21:51:06.724Z,12.53
2023-05-25T21:53:33.766Z,8.17
2023-05-25T21:56:00.814Z,12.07
2023-05-25T21:58:28.098Z,7.17
2023-05-25T22:00:55.391Z,8.20
2023-05-25T22:03:25.519Z,9.97
2023-05-25T22:05:52.728Z,10.30
2023-05-25T22:08:19.812Z,6.37
2023-05-25T22:10:48.455Z,8.47
2023-05-25T22:13:15.788Z,11.50
2023-05-25T22:15:44.514Z,7.60
2023-05-25T22:18:12.002Z,9.60
2023-05-25T22:20:41.429Z,9.27
2023-05-25T22:23:10.662Z,7.90
2023-05-25T22:25:38.098Z,9.50
2023-05-25T22:28:05.509Z,8.13
2023-05-25T22:30:32.934Z,7.57
2023-05-25T22:33:00.306Z,8.77
2023-05-25T22:35:28.716Z,7.00
2023-05-25T22:37:56.062Z,7.97
2023-05-25T22:40:23.365Z,8.47
2023-05-25T22:42:50.565Z,7.27
2023-05-25T22:45:18.587Z,10.83
2023-05-25T22:47:45.832Z,7.70
2023-05-25T22:50:14.122Z,8.53
2023-05-25T22:52:42.768Z,8.47
2023-05-25T22:55:10.054Z,6.60
2023-05-25T22:57:38.425Z,10.47
2023-05-25T23:00:06.242Z,7.57
2023-05-25T23:02:33.584Z,7.03
2023-05-25T23:05:02.512Z,7.37
2023-05-25T23:07:29.824Z,9.90
2023-05-25T23:09:57.492Z,7.27
2023-05-25T23:12:24.520Z,7.50
2023-05-25T23:14:51.943Z,7.70
2023-05-25T23:17:19.613Z,5.47
2023-05-25T23:19:46.715Z,6.57
2023-05-25T23:22:14.053Z,6.83
2023-05-25T23:24:41.081Z,8.00
2023-05-25T23:27:08.111Z,6.60
2023-05-25T23:29:35.252Z,8.70
2023-05-25T23:32:04.091Z,6.63
2023-05-25T23:34:31.262Z,6.23
2023-05-25T23:36:58.357Z,5.50
2023-05-25T23:39:26.161Z,6.23
2023-05-25T23:41:53.452Z,8.53
2023-05-25T23:44:22.045Z,9.57
2023-05-25T23:46:49.114Z,5.90
2023-05-25T23:49:16.177Z,7.37
2023-05-25T23:51:44.346Z,7.70
2023-05-25T23:54:11.379Z,7.60
2023-05-25T23:56:38.413Z,6.30
2023-05-25T23:59:05.503Z,6.10
